Station Historical Data
Daily Summary for May 8, 2011 Units:  English    Metric   Both
« Previous Day
Next Day »
Daily Weekly Monthly Yearly Custom
  High: Low: Average:
Temperature: 81.6 °F 58.1 °F 70.4 °F
Dew Point: 69.0 °F 55.1 °F 62.5 °F
Humidity: 91% 59% 77%
Wind Speed: 8.0mph 0.0mph 2.5mph
Wind Gust: 11.0mph - -
Wind- - South
Pressure: 29.92 in 29.84 in -
Precipitation: 0.00 in    
Historical Graphs
 
 
Tabular Data for May 8, 2011
Time Temperature Dew Point Pressure Wind Wind Speed Wind Gust Humidity Rainfall Rate (Hourly) Conditions
00:00 63.8 °F 56.8 °F 29.87 in SE 1.0 mph 1.0 mph 78% 0.00 in
00:01 63.8 °F 56.5 °F 29.87 in Calm   1.0 mph 77% 0.00 in
00:03 63.9 °F 56.6 °F 29.87 in Calm   1.0 mph 77% 0.00 in
00:06 63.8 °F 56.5 °F 29.87 in Calm   1.0 mph 77% 0.00 in
00:08 63.6 °F 56.3 °F 29.87 in Calm     77% 0.00 in
00:11 63.4 °F 56.4 °F 29.87 in Calm     78% 0.00 in
00:13 63.1 °F 56.1 °F 29.87 in Calm     78% 0.00 in
00:18 62.5 °F 56.2 °F 29.87 in Calm     80% 0.00 in
00:19 62.5 °F 56.2 °F 29.87 in Calm     80% 0.00 in
00:24 62.0 °F 56.1 °F 29.87 in Calm     81% 0.00 in
00:29 62.4 °F 56.5 °F 29.87 in Calm   1.0 mph 81% 0.00 in
00:34 62.6 °F 56.3 °F 29.87 in Calm     80% 0.00 in
00:36 62.6 °F 56.3 °F 29.87 in Calm     80% 0.00 in
00:39 62.5 °F 56.2 °F 29.87 in Calm     80% 0.00 in
00:44 62.1 °F 56.2 °F 29.87 in Calm     81% 0.00 in
00:45 62.1 °F 56.2 °F 29.87 in Calm     81% 0.00 in
00:50 62.0 °F 56.1 °F 29.88 in Calm     81% 0.00 in
00:55 61.8 °F 56.2 °F 29.88 in Calm     82% 0.00 in
00:56 61.7 °F 56.2 °F 29.88 in Calm     82% 0.00 in
00:57 61.7 °F 56.2 °F 29.88 in Calm     82% 0.00 in
01:00 61.4 °F 56.2 °F 29.88 in Calm     83% 0.00 in
01:05 61.0 °F 56.1 °F 29.88 in Calm   1.0 mph 84% 0.00 in
01:10 60.8 °F 55.9 °F 29.88 in Calm   1.0 mph 84% 0.00 in
01:15 60.4 °F 55.9 °F 29.88 in SE 1.0 mph 1.0 mph 85% 0.00 in
01:16 60.4 °F 56.2 °F 29.88 in SE 1.0 mph 1.0 mph 86% 0.00 in
01:21 60.4 °F 55.9 °F 29.88 in Calm   1.0 mph 85% 0.00 in
01:26 60.3 °F 56.1 °F 29.88 in Calm   1.0 mph 86% 0.00 in
01:27 60.2 °F 56.0 °F 29.88 in Calm   1.0 mph 86% 0.00 in
01:32 60.1 °F 56.2 °F 29.88 in SE 1.0 mph 1.0 mph 87% 0.00 in
01:36 60.1 °F 55.9 °F 29.88 in Calm   1.0 mph 86% 0.00 in
01:37 60.0 °F 55.8 °F 29.88 in Calm   1.0 mph 86% 0.00 in
01:42 59.5 °F 55.6 °F 29.88 in Calm   1.0 mph 87% 0.00 in
01:47 59.2 °F 55.7 °F 29.88 in Calm     88% 0.00 in
01:52 59.0 °F 55.5 °F 29.88 in Calm     88% 0.00 in
01:53 59.0 °F 55.5 °F 29.88 in Calm     88% 0.00 in
01:58 59.1 °F 55.9 °F 29.88 in Calm   1.0 mph 89% 0.00 in
02:03 59.6 °F 56.0 °F 29.88 in Calm     88% 0.00 in
02:08 59.5 °F 55.6 °F 29.88 in Calm     87% 0.00 in
02:13 59.1 °F 55.5 °F 29.88 in Calm     88% 0.00 in
02:18 58.8 °F 55.6 °F 29.88 in SE 1.0 mph 1.0 mph 89% 0.00 in
02:23 59.1 °F 55.9 °F 29.88 in Calm   1.0 mph 89% 0.00 in
02:28 59.2 °F 55.7 °F 29.87 in Calm     88% 0.00 in
02:30 59.1 °F 55.5 °F 29.87 in Calm     88% 0.00 in
02:31 59.1 °F 55.5 °F 29.87 in Calm     88% 0.00 in
02:33 58.9 °F 55.4 °F 29.87 in Calm     88% 0.00 in
02:35 58.8 °F 55.3 °F 29.87 in Calm     88% 0.00 in
02:37 58.6 °F 55.4 °F 29.87 in Calm     89% 0.00 in
02:42 58.3 °F 55.1 °F 29.87 in Calm     89% 0.00 in
02:47 58.3 °F 55.4 °F 29.87 in ESE 1.0 mph 1.0 mph 90% 0.00 in
02:52 58.4 °F 55.5 °F 29.87 in ESE 1.0 mph 1.0 mph 90% 0.00 in
02:55 58.5 °F 55.6 °F 29.87 in ESE 1.0 mph 1.0 mph 90% 0.00 in
02:57 58.6 °F 55.7 °F 29.87 in Calm   1.0 mph 90% 0.00 in
03:05 58.7 °F 55.8 °F 29.87 in Calm     90% 0.00 in
03:06 58.6 °F 55.7 °F 29.87 in Calm     90% 0.00 in
03:11 58.6 °F 55.7 °F 29.87 in Calm     90% 0.00 in
03:16 58.8 °F 55.9 °F 29.87 in Calm     90% 0.00 in
03:21 59.0 °F 55.8 °F 29.87 in Calm     89% 0.00 in
03:26 58.9 °F 55.7 °F 29.87 in Calm     89% 0.00 in
03:27 58.9 °F 55.7 °F 29.87 in Calm     89% 0.00 in
03:29 58.8 °F 55.6 °F 29.87 in Calm     89% 0.00 in
03:32 58.8 °F 55.9 °F 29.87 in Calm     90% 0.00 in
03:34 58.7 °F 55.5 °F 29.87 in Calm     89% 0.00 in
03:36 58.6 °F 55.4 °F 29.87 in Calm     89% 0.00 in
03:41 58.2 °F 55.3 °F 29.87 in Calm     90% 0.00 in
03:46 58.7 °F 55.8 °F 29.87 in Calm     90% 0.00 in
03:51 59.0 °F 55.8 °F 29.87 in East 2.0 mph 2.0 mph 89% 0.00 in
03:56 58.7 °F 55.5 °F 29.87 in ESE 1.0 mph 2.0 mph 89% 0.00 in
03:57 58.7 °F 55.5 °F 29.87 in East 2.0 mph 2.0 mph 89% 0.00 in
03:58 58.7 °F 55.5 °F 29.87 in East 1.0 mph 2.0 mph 89% 0.00 in
04:01 58.5 °F 55.3 °F 29.87 in East 1.0 mph 2.0 mph 89% 0.00 in
04:02 58.5 °F 55.3 °F 29.87 in East 1.0 mph 2.0 mph 89% 0.00 in
04:07 58.3 °F 55.4 °F 29.87 in East 1.0 mph 2.0 mph 90% 0.00 in
04:12 58.2 °F 55.3 °F 29.87 in East 1.0 mph 2.0 mph 90% 0.00 in
04:13 58.2 °F 55.3 °F 29.87 in East 1.0 mph 1.0 mph 90% 0.00 in
04:18 58.2 °F 55.3 °F 29.87 in East 1.0 mph 1.0 mph 90% 0.00 in
04:23 58.3 °F 55.4 °F 29.87 in ESE 1.0 mph 2.0 mph 90% 0.00 in
04:28 58.3 °F 55.4 °F 29.87 in ESE 1.0 mph 1.0 mph 90% 0.00 in
04:33 58.1 °F 55.2 °F 29.87 in SE 1.0 mph 1.0 mph 90% 0.00 in
04:36 58.2 °F 55.6 °F 29.87 in SE 1.0 mph 1.0 mph 91% 0.00 in
04:39 58.2 °F 55.6 °F 29.87 in SE 1.0 mph 1.0 mph 91% 0.00 in
04:44 58.3 °F 55.4 °F 29.87 in Calm   2.0 mph 90% 0.00 in
04:49 58.3 °F 55.4 °F 29.87 in SE 1.0 mph 1.0 mph 90% 0.00 in
04:54 58.3 °F 55.4 °F 29.87 in SE 1.0 mph 2.0 mph 90% 0.00 in
04:55 58.2 °F 55.3 °F 29.87 in SE 1.0 mph 2.0 mph 90% 0.00 in
04:56 58.2 °F 55.3 °F 29.87 in SSE 2.0 mph 2.0 mph 90% 0.00 in
04:59 58.6 °F 55.7 °F 29.87 in SE 4.0 mph 4.0 mph 90% 0.00 in
05:01 58.7 °F 55.8 °F 29.87 in SE 2.0 mph 4.0 mph 90% 0.00 in
05:06 58.9 °F 56.0 °F 29.87 in SE 1.0 mph 2.0 mph 90% 0.00 in
05:11 59.0 °F 55.8 °F 29.87 in SE 1.0 mph 2.0 mph 89% 0.00 in
05:16 59.1 °F 56.2 °F 29.87 in South 2.0 mph 3.0 mph 90% 0.00 in
05:21 59.3 °F 56.4 °F 29.87 in SE 3.0 mph 4.0 mph 90% 0.00 in
05:26 59.5 °F 56.6 °F 29.87 in SE 3.0 mph 3.0 mph 90% 0.00 in
05:27 59.5 °F 56.6 °F 29.87 in SE 1.0 mph 3.0 mph 90% 0.00 in
05:32 59.7 °F 56.8 °F 29.87 in SE 2.0 mph 4.0 mph 90% 0.00 in
05:33 59.8 °F 56.9 °F 29.88 in SE 5.0 mph 5.0 mph 90% 0.00 in
05:38 60.0 °F 56.8 °F 29.87 in SE 4.0 mph 4.0 mph 89% 0.00 in
05:43 60.1 °F 56.8 °F 29.88 in SSE 2.0 mph 4.0 mph 89% 0.00 in
05:48 60.2 °F 57.0 °F 29.88 in SSE 3.0 mph 5.0 mph 89% 0.00 in
05:53 60.3 °F 57.0 °F 29.87 in SE 4.0 mph 4.0 mph 89% 0.00 in
05:58 60.4 °F 57.2 °F 29.88 in SE 1.0 mph 4.0 mph 89% 0.00 in
06:03 60.4 °F 57.2 °F 29.88 in SSE 2.0 mph 3.0 mph 89% 0.00 in
06:08 60.4 °F 57.2 °F 29.88 in SSE 2.0 mph 3.0 mph 89% 0.00 in
06:13 60.4 °F 57.2 °F 29.88 in SSE 3.0 mph 3.0 mph 89% 0.00 in
06:14 60.4 °F 57.2 °F 29.88 in SE 2.0 mph 3.0 mph 89% 0.00 in
06:19 60.5 °F 56.9 °F 29.88 in SSE 2.0 mph 3.0 mph 88% 0.00 in
06:24 60.6 °F 57.3 °F 29.88 in SSE 4.0 mph 4.0 mph 89% 0.00 in
06:29 60.6 °F 57.3 °F 29.88 in SSE 2.0 mph 4.0 mph 89% 0.00 in
06:32 60.6 °F 57.3 °F 29.88 in SE 3.0 mph 3.0 mph 89% 0.00 in
06:34 60.7 °F 57.4 °F 29.88 in South 3.0 mph 4.0 mph 89% 0.00 in
06:35 60.7 °F 57.4 °F 29.88 in SSE 4.0 mph 4.0 mph 89% 0.00 in
06:37 60.7 °F 57.4 °F 29.89 in SSE 3.0 mph 4.0 mph 89% 0.00 in
06:40 60.8 °F 57.2 °F 29.89 in SE 3.0 mph 4.0 mph 88% 0.00 in
06:43 60.8 °F 57.2 °F 29.89 in SSE 3.0 mph 4.0 mph 88% 0.00 in
06:48 60.7 °F 57.4 °F 29.89 in South 2.0 mph 4.0 mph 89% 0.00 in
06:53 60.6 °F 57.3 °F 29.89 in South 2.0 mph 3.0 mph 89% 0.00 in
06:58 60.7 °F 57.4 °F 29.89 in SSE 2.0 mph 3.0 mph 89% 0.00 in
06:59 60.7 °F 57.4 °F 29.89 in SE 2.0 mph 4.0 mph 89% 0.00 in
07:03 60.7 °F 57.4 °F 29.89 in SE 3.0 mph 4.0 mph 89% 0.00 in
07:04 60.7 °F 57.4 °F 29.89 in SE 3.0 mph 4.0 mph 89% 0.00 in
07:09 60.7 °F 57.4 °F 29.89 in SSW 2.0 mph 3.0 mph 89% 0.00 in
07:14 60.8 °F 57.5 °F 29.89 in SSE 2.0 mph 2.0 mph 89% 0.00 in
07:19 60.8 °F 57.5 °F 29.89 in SSE 2.0 mph 2.0 mph 89% 0.00 in
07:24 60.8 °F 57.5 °F 29.89 in SE 2.0 mph 3.0 mph 89% 0.00 in
07:29 60.8 °F 57.5 °F 29.89 in SSE 1.0 mph 3.0 mph 89% 0.00 in
07:31 60.9 °F 57.6 °F 29.90 in SSE 1.0 mph 2.0 mph 89% 0.00 in
07:34 60.9 °F 57.6 °F 29.90 in SSE 2.0 mph 3.0 mph 89% 0.00 in
07:35 61.0 °F 57.7 °F 29.90 in SSW 3.0 mph 3.0 mph 89% 0.00 in
07:37 61.0 °F 57.7 °F 29.90 in SSE 2.0 mph 3.0 mph 89% 0.00 in
07:42 61.2 °F 57.9 °F 29.90 in SSE 1.0 mph 3.0 mph 89% 0.00 in
07:47 61.4 °F 58.1 °F 29.90 in Calm   3.0 mph 89% 0.00 in
07:48 61.4 °F 58.1 °F 29.90 in SSE 2.0 mph 3.0 mph 89% 0.00 in
07:53 61.6 °F 58.0 °F 29.90 in Calm   2.0 mph 88% 0.00 in
07:55 61.7 °F 58.4 °F 29.90 in SSE 1.0 mph 1.0 mph 89% 0.00 in
07:58 61.8 °F 58.2 °F 29.90 in SSW 1.0 mph 4.0 mph 88% 0.00 in
08:01 62.0 °F 58.1 °F 29.90 in South 3.0 mph 4.0 mph 87% 0.00 in
08:06 62.2 °F 58.3 °F 29.90 in SSW 2.0 mph 3.0 mph 87% 0.00 in
08:11 62.4 °F 58.5 °F 29.90 in SE 2.0 mph 2.0 mph 87% 0.00 in
08:16 62.9 °F 59.0 °F 29.90 in SSE 2.0 mph 2.0 mph 87% 0.00 in
08:21 63.5 °F 58.9 °F 29.90 in SSW 1.0 mph 2.0 mph 85% 0.00 in
08:26 64.0 °F 59.1 °F 29.90 in South 1.0 mph 3.0 mph 84% 0.00 in
08:27 64.1 °F 59.2 °F 29.90 in SSW 1.0 mph 3.0 mph 84% 0.00 in
08:31 64.6 °F 59.7 °F 29.90 in SW 4.0 mph 4.0 mph 84% 0.00 in
08:32 64.6 °F 59.0 °F 29.90 in South 1.0 mph 4.0 mph 82% 0.00 in
08:34 64.7 °F 59.4 °F 29.90 in SW 3.0 mph 4.0 mph 83% 0.00 in
08:37 65.0 °F 59.7 °F 29.91 in SSE 1.0 mph 3.0 mph 83% 0.00 in
08:40 65.2 °F 59.2 °F 29.91 in SW 3.0 mph 4.0 mph 81% 0.00 in
08:42 65.4 °F 59.8 °F 29.91 in SW 2.0 mph 4.0 mph 82% 0.00 in
08:47 65.8 °F 59.8 °F 29.91 in SW 5.0 mph 5.0 mph 81% 0.00 in
08:52 65.8 °F 59.8 °F 29.91 in SW 5.0 mph 6.0 mph 81% 0.00 in
08:53 65.8 °F 59.8 °F 29.91 in WSW 4.0 mph 6.0 mph 81% 0.00 in
08:58 66.0 °F 59.7 °F 29.91 in SW 7.0 mph 7.0 mph 80% 0.00 in
09:03 66.2 °F 60.2 °F 29.92 in SSW 4.0 mph 7.0 mph 81% 0.00 in
09:08 66.4 °F 60.4 °F 29.92 in SW 3.0 mph 8.0 mph 81% 0.00 in
09:09 66.5 °F 60.5 °F 29.92 in SW 5.0 mph 6.0 mph 81% 0.00 in
09:13 66.7 °F 60.3 °F 29.92 in SW 8.0 mph 8.0 mph 80% 0.00 in
09:15 66.7 °F 60.0 °F 29.92 in SW 6.0 mph 10.0 mph 79% 0.00 in
09:18 66.8 °F 60.4 °F 29.92 in SSW 5.0 mph 8.0 mph 80% 0.00 in
09:20 66.8 °F 60.4 °F 29.92 in WSW 4.0 mph 8.0 mph 80% 0.00 in
09:25 66.9 °F 60.5 °F 29.92 in WSW 4.0 mph 9.0 mph 80% 0.00 in
09:26 66.9 °F 60.5 °F 29.92 in WSW 4.0 mph 9.0 mph 80% 0.00 in
09:27 66.9 °F 60.5 °F 29.92 in WSW 6.0 mph 9.0 mph 80% 0.00 in
09:31 67.0 °F 60.6 °F 29.92 in SW 6.0 mph 9.0 mph 80% 0.00 in
09:32 67.0 °F 60.6 °F 29.92 in WSW 6.0 mph 9.0 mph 80% 0.00 in
09:36 67.3 °F 61.3 °F 29.92 in SSW 3.0 mph 7.0 mph 81% 0.00 in
09:41 67.7 °F 61.3 °F 29.91 in SW 5.0 mph 7.0 mph 80% 0.00 in
09:46 67.9 °F 61.5 °F 29.92 in WSW 4.0 mph 9.0 mph 80% 0.00 in
09:51 68.5 °F 61.7 °F 29.92 in WSW 5.0 mph 8.0 mph 79% 0.00 in
09:52 68.5 °F 61.7 °F 29.92 in WSW 4.0 mph 7.0 mph 79% 0.00 in
09:57 68.9 °F 62.1 °F 29.92 in SSW 4.0 mph 9.0 mph 79% 0.00 in
09:58 69.0 °F 62.2 °F 29.92 in SW 5.0 mph 8.0 mph 79% 0.00 in
10:02 69.4 °F 62.2 °F 29.92 in WSW 8.0 mph 8.0 mph 78% 0.00 in
10:03 69.4 °F 62.6 °F 29.92 in WSW 5.0 mph 8.0 mph 79% 0.00 in
10:08 70.1 °F 62.9 °F 29.92 in SSW 7.0 mph 7.0 mph 78% 0.00 in
10:13 70.4 °F 62.8 °F 29.92 in West 5.0 mph 8.0 mph 77% 0.00 in
10:19 70.2 °F 62.3 °F 29.92 in WSW 5.0 mph 9.0 mph 76% 0.00 in
10:24 70.4 °F 63.2 °F 29.92 in WSW 7.0 mph 7.0 mph 78% 0.00 in
10:26 70.6 °F 63.4 °F 29.92 in WNW 4.0 mph 7.0 mph 78% 0.00 in
10:30 70.9 °F 63.7 °F 29.92 in WSW 3.0 mph 6.0 mph 78% 0.00 in
10:31 71.0 °F 63.4 °F 29.92 in SW 7.0 mph 7.0 mph 77% 0.00 in
10:36 70.7 °F 62.8 °F 29.92 in SW 8.0 mph 10.0 mph 76% 0.00 in
10:41 71.0 °F 63.8 °F 29.91 in SW 5.0 mph 6.0 mph 78% 0.00 in
10:46 71.4 °F 64.2 °F 29.91 in West 3.0 mph 6.0 mph 78% 0.00 in
10:51 71.6 °F 64.4 °F 29.91 in WSW 5.0 mph 7.0 mph 78% 0.00 in
10:52 71.5 °F 63.2 °F 29.91 in WSW 5.0 mph 7.0 mph 75% 0.00 in
10:53 71.5 °F 63.2 °F 29.91 in West 2.0 mph 7.0 mph 75% 0.00 in
10:57 71.7 °F 63.4 °F 29.91 in SW 3.0 mph 6.0 mph 75% 0.00 in
10:58 71.8 °F 64.2 °F 29.91 in West 4.0 mph 7.0 mph 77% 0.00 in
11:02 72.0 °F 63.7 °F 29.91 in WSW 2.0 mph 5.0 mph 75% 0.00 in
11:07 72.2 °F 63.8 °F 29.91 in SW 5.0 mph 7.0 mph 75% 0.00 in
11:12 72.3 °F 63.9 °F 29.91 in WSW 3.0 mph 6.0 mph 75% 0.00 in
11:17 72.6 °F 64.2 °F 29.91 in WSW 2.0 mph 5.0 mph 75% 0.00 in
11:22 73.0 °F 64.2 °F 29.91 in SSW 3.0 mph 4.0 mph 74% 0.00 in
11:27 73.4 °F 64.6 °F 29.91 in SW 4.0 mph 6.0 mph 74% 0.00 in
11:28 73.5 °F 65.1 °F 29.91 in SW 5.0 mph 6.0 mph 75% 0.00 in
11:33 73.7 °F 65.3 °F 29.91 in WSW 2.0 mph 3.0 mph 75% 0.00 in
11:35 73.9 °F 64.7 °F 29.91 in West 2.0 mph 5.0 mph 73% 0.00 in
11:36 73.9 °F 64.7 °F 29.91 in WNW 3.0 mph 5.0 mph 73% 0.00 in
11:41 73.9 °F 64.7 °F 29.91 in West 3.0 mph 6.0 mph 73% 0.00 in
11:46 74.0 °F 64.4 °F 29.90 in SSW 1.0 mph 6.0 mph 72% 0.00 in
11:51 74.6 °F 65.8 °F 29.90 in WNW 2.0 mph 5.0 mph 74% 0.00 in
11:53 74.7 °F 64.3 °F 29.90 in WNW 3.0 mph 5.0 mph 70% 0.00 in
11:54 74.6 °F 64.2 °F 29.90 in WSW 2.0 mph 5.0 mph 70% 0.00 in
11:57 74.7 °F 65.1 °F 29.90 in West 6.0 mph 6.0 mph 72% 0.00 in
11:59 74.7 °F 65.1 °F 29.91 in WNW 4.0 mph 6.0 mph 72% 0.00 in
12:04 74.7 °F 64.7 °F 29.90 in Calm   5.0 mph 71% 0.00 in
12:09 75.6 °F 65.9 °F 29.90 in SW 4.0 mph 6.0 mph 72% 0.00 in
12:14 75.6 °F 65.5 °F 29.90 in SSW 2.0 mph 5.0 mph 71% 0.00 in
12:19 75.9 °F 65.0 °F 29.90 in WSW 2.0 mph 5.0 mph 69% 0.00 in
12:24 76.8 °F 67.1 °F 29.90 in SW 8.0 mph 8.0 mph 72% 0.00 in
12:29 76.6 °F 65.7 °F 29.90 in NW 1.0 mph 4.0 mph 69% 0.00 in
12:30 76.8 °F 66.3 °F 29.90 in SSE 2.0 mph 3.0 mph 70% 0.00 in
12:35 77.3 °F 66.3 °F 29.90 in SE 2.0 mph 6.0 mph 69% 0.00 in
12:36 77.4 °F 66.4 °F 29.90 in SW 2.0 mph 4.0 mph 69% 0.00 in
12:41 77.4 °F 66.4 °F 29.90 in South 4.0 mph 4.0 mph 69% 0.00 in
12:46 77.6 °F 66.2 °F 29.90 in WSW 4.0 mph 5.0 mph 68% 0.00 in
12:47 77.5 °F 65.7 °F 29.90 in West 4.0 mph 7.0 mph 67% 0.00 in
12:51 77.1 °F 66.2 °F 29.90 in WNW 5.0 mph 7.0 mph 69% 0.00 in
12:52 77.0 °F 66.1 °F 29.90 in West 4.0 mph 7.0 mph 69% 0.00 in
12:54 77.1 °F 65.7 °F 29.89 in WNW 4.0 mph 6.0 mph 68% 0.00 in
12:57 77.1 °F 66.6 °F 29.89 in WSW 2.0 mph 7.0 mph 70% 0.00 in
12:58 77.1 °F 66.6 °F 29.89 in West 1.0 mph 7.0 mph 70% 0.00 in
13:02 77.5 °F 66.5 °F 29.89 in WNW 3.0 mph 3.0 mph 69% 0.00 in
13:04 77.6 °F 66.2 °F 29.89 in WNW 3.0 mph 3.0 mph 68% 0.00 in
13:09 78.1 °F 66.3 °F 29.90 in South 6.0 mph 7.0 mph 67% 0.00 in
13:14 78.6 °F 65.9 °F 29.89 in South 2.0 mph 5.0 mph 65% 0.00 in
13:19 78.0 °F 65.7 °F 29.89 in SSE 1.0 mph 5.0 mph 66% 0.00 in
13:20 78.1 °F 66.7 °F 29.89 in SW 4.0 mph 5.0 mph 68% 0.00 in
13:24 78.3 °F 66.4 °F 29.89 in SSE 3.0 mph 7.0 mph 67% 0.00 in
13:27 78.6 °F 66.3 °F 29.89 in WSW 2.0 mph 4.0 mph 66% 0.00 in
13:29 78.9 °F 67.0 °F 29.89 in SW 6.0 mph 7.0 mph 67% 0.00 in
13:32 79.0 °F 66.7 °F 29.89 in SW 3.0 mph 6.0 mph 66% 0.00 in
13:33 79.1 °F 66.8 °F 29.89 in SW 2.0 mph 5.0 mph 66% 0.00 in
13:35 79.3 °F 66.1 °F 29.89 in SSE 1.0 mph 7.0 mph 64% 0.00 in
13:36 79.4 °F 67.1 °F 29.89 in West 2.0 mph 7.0 mph 66% 0.00 in
13:41 79.3 °F 66.1 °F 29.88 in SSE 1.0 mph 6.0 mph 64% 0.00 in
13:46 79.0 °F 67.1 °F 29.88 in WSW 1.0 mph 3.0 mph 67% 0.00 in
13:51 79.3 °F 67.4 °F 29.88 in SW 6.0 mph 7.0 mph 67% 0.00 in
13:52 79.4 °F 67.1 °F 29.88 in SSW 4.0 mph 7.0 mph 66% 0.00 in
13:53 79.5 °F 67.6 °F 29.88 in SSW 4.0 mph 7.0 mph 67% 0.00 in
13:56 79.6 °F 66.8 °F 29.88 in South 2.0 mph 6.0 mph 65% 0.00 in
13:57 79.7 °F 66.5 °F 29.88 in SE 3.0 mph 6.0 mph 64% 0.00 in
13:58 79.8 °F 67.0 °F 29.88 in SSE 2.0 mph 6.0 mph 65% 0.00 in
13:59 79.9 °F 67.1 °F 29.88 in South 5.0 mph 6.0 mph 65% 0.00 in
14:04 80.1 °F 67.7 °F 29.88 in SW 4.0 mph 6.0 mph 66% 0.00 in
14:05 80.1 °F 67.7 °F 29.88 in SSW 4.0 mph 6.0 mph 66% 0.00 in
14:10 80.1 °F 67.7 °F 29.88 in South 3.0 mph 5.0 mph 66% 0.00 in
14:15 79.9 °F 67.5 °F 29.88 in SSE 3.0 mph 6.0 mph 66% 0.00 in
14:20 79.7 °F 67.3 °F 29.88 in West 3.0 mph 5.0 mph 66% 0.00 in
14:25 79.7 °F 66.9 °F 29.88 in SSE 4.0 mph 4.0 mph 65% 0.00 in
14:26 79.7 °F 66.9 °F 29.88 in SSE 3.0 mph 4.0 mph 65% 0.00 in
14:30 79.3 °F 66.5 °F 29.87 in SE 7.0 mph 8.0 mph 65% 0.00 in
14:31 79.2 °F 66.0 °F 29.87 in SSE 5.0 mph 8.0 mph 64% 0.00 in
14:32 78.9 °F 66.2 °F 29.87 in SSE 1.0 mph 7.0 mph 65% 0.00 in
14:36 78.8 °F 67.4 °F 29.87 in South 6.0 mph 8.0 mph 68% 0.00 in
14:41 79.4 °F 67.9 °F 29.87 in SSE 6.0 mph 8.0 mph 68% 0.00 in
14:46 80.0 °F 66.7 °F 29.87 in SSW 3.0 mph 7.0 mph 64% 0.00 in
14:47 80.1 °F 67.7 °F 29.87 in SE 4.0 mph 7.0 mph 66% 0.00 in
14:52 80.8 °F 68.8 °F 29.87 in SE 4.0 mph 7.0 mph 67% 0.00 in
14:53 81.0 °F 69.0 °F 29.87 in SSW 7.0 mph 7.0 mph 67% 0.00 in
14:57 80.8 °F 66.6 °F 29.87 in SSW 5.0 mph 7.0 mph 62% 0.00 in
14:58 80.8 °F 66.6 °F 29.87 in SSE 3.0 mph 7.0 mph 62% 0.00 in
15:02 80.5 °F 67.2 °F 29.87 in SSW 3.0 mph 6.0 mph 64% 0.00 in
15:03 80.5 °F 67.2 °F 29.87 in SW 5.0 mph 7.0 mph 64% 0.00 in
15:08 80.1 °F 66.4 °F 29.87 in SW 5.0 mph 7.0 mph 63% 0.00 in
15:13 80.0 °F 67.2 °F 29.87 in SW 3.0 mph 8.0 mph 65% 0.00 in
15:14 80.1 °F 66.4 °F 29.87 in WSW 2.0 mph 8.0 mph 63% 0.00 in
15:18 80.1 °F 65.9 °F 29.87 in SW 7.0 mph 8.0 mph 62% 0.00 in
15:19 80.0 °F 65.8 °F 29.87 in SSW 7.0 mph 8.0 mph 62% 0.00 in
15:24 80.1 °F 66.4 °F 29.87 in SSW 1.0 mph 7.0 mph 63% 0.00 in
15:29 80.0 °F 65.4 °F 29.87 in SSE 4.0 mph 5.0 mph 61% 0.00 in
15:30 80.1 °F 65.9 °F 29.87 in SE 7.0 mph 7.0 mph 62% 0.00 in
15:31 80.2 °F 66.5 °F 29.87 in SSE 6.0 mph 8.0 mph 63% 0.00 in
15:34 80.0 °F 66.3 °F 29.87 in SW 5.0 mph 10.0 mph 63% 0.00 in
15:36 79.9 °F 66.2 °F 29.86 in WSW 4.0 mph 9.0 mph 63% 0.00 in
15:41 80.0 °F 67.2 °F 29.86 in South 8.0 mph 8.0 mph 65% 0.00 in
15:46 80.3 °F 66.1 °F 29.86 in WSW 3.0 mph 4.0 mph 62% 0.00 in
15:51 81.0 °F 67.7 °F 29.86 in SW 6.0 mph 6.0 mph 64% 0.00 in
15:52 81.0 °F 66.3 °F 29.86 in South 5.0 mph 6.0 mph 61% 0.00 in
15:55 81.3 °F 67.1 °F 29.86 in SW 3.0 mph 5.0 mph 62% 0.00 in
15:57 81.5 °F 66.8 °F 29.86 in South 6.0 mph 7.0 mph 61% 0.00 in
16:00 81.6 °F 65.9 °F 29.86 in SSW 7.0 mph 9.0 mph 59% 0.00 in
16:05 81.3 °F 65.6 °F 29.85 in SW 3.0 mph 7.0 mph 59% 0.00 in
16:10 81.0 °F 65.8 °F 29.85 in SSW 4.0 mph 7.0 mph 60% 0.00 in
16:15 80.6 °F 66.4 °F 29.86 in SSE 5.0 mph 7.0 mph 62% 0.00 in
16:20 81.1 °F 67.8 °F 29.85 in SW 5.0 mph 9.0 mph 64% 0.00 in
16:25 80.5 °F 65.3 °F 29.85 in SSE 4.0 mph 8.0 mph 60% 0.00 in
16:26 80.5 °F 65.3 °F 29.85 in South 5.0 mph 8.0 mph 60% 0.00 in
16:31 80.4 °F 65.3 °F 29.85 in SE 4.0 mph 6.0 mph 60% 0.00 in
16:36 80.9 °F 67.1 °F 29.85 in SE 5.0 mph 7.0 mph 63% 0.00 in
16:41 80.5 °F 66.8 °F 29.85 in SSW 5.0 mph 8.0 mph 63% 0.00 in
16:46 80.2 °F 66.5 °F 29.85 in WSW 7.0 mph 11.0 mph 63% 0.00 in
16:51 80.4 °F 67.1 °F 29.85 in South 4.0 mph 9.0 mph 64% 0.00 in
16:52 80.4 °F 66.7 °F 29.85 in SSW 1.0 mph 9.0 mph 63% 0.00 in
16:56 80.4 °F 67.1 °F 29.84 in SE 7.0 mph 9.0 mph 64% 0.00 in
16:57 80.3 °F 66.1 °F 29.84 in SSE 5.0 mph 9.0 mph 62% 0.00 in
17:00 80.5 °F 67.2 °F 29.84 in SSW 3.0 mph 5.0 mph 64% 0.00 in
17:02 80.5 °F 66.3 °F 29.85 in SSE 3.0 mph 5.0 mph 62% 0.00 in
17:06 80.3 °F 66.6 °F 29.84 in WSW 5.0 mph 5.0 mph 63% 0.00 in
17:08 80.1 °F 66.4 °F 29.84 in SSE 3.0 mph 8.0 mph 63% 0.00 in
17:13 80.3 °F 66.6 °F 29.84 in SW 7.0 mph 9.0 mph 63% 0.00 in
17:15 80.2 °F 66.0 °F 29.84 in SW 6.0 mph 9.0 mph 62% 0.00 in
17:20 79.8 °F 66.6 °F 29.84 in SW 7.0 mph 7.0 mph 64% 0.00 in
17:21 79.8 °F 66.6 °F 29.84 in SW 4.0 mph 7.0 mph 64% 0.00 in
17:25 80.2 °F 67.4 °F 29.84 in WSW 2.0 mph 4.0 mph 65% 0.00 in
17:26 80.3 °F 67.0 °F 29.84 in South 4.0 mph 5.0 mph 64% 0.00 in
17:27 80.7 °F 67.8 °F 29.84 in SW 3.0 mph 5.0 mph 65% 0.00 in
17:30 80.8 °F 66.6 °F 29.85 in SSW 2.0 mph 6.0 mph 62% 0.00 in
17:31 80.9 °F 66.7 °F 29.85 in WSW 5.0 mph 6.0 mph 62% 0.00 in
17:32 80.9 °F 66.7 °F 29.84 in SW 5.0 mph 6.0 mph 62% 0.00 in
17:34 80.7 °F 66.5 °F 29.84 in SW 4.0 mph 7.0 mph 62% 0.00 in
17:37 80.6 °F 66.8 °F 29.85 in SSW 2.0 mph 6.0 mph 63% 0.00 in
17:42 80.4 °F 66.2 °F 29.85 in SW 6.0 mph 7.0 mph 62% 0.00 in
17:47 80.6 °F 66.8 °F 29.85 in SSW 3.0 mph 5.0 mph 63% 0.00 in
17:52 81.1 °F 67.8 °F 29.85 in SSE 3.0 mph 8.0 mph 64% 0.00 in
17:54 81.2 °F 66.9 °F 29.85 in SW 3.0 mph 7.0 mph 62% 0.00 in
17:58 81.5 °F 66.8 °F 29.85 in SW 4.0 mph 6.0 mph 61% 0.00 in
17:59 81.6 °F 67.3 °F 29.85 in SSW 6.0 mph 6.0 mph 62% 0.00 in
18:04 81.6 °F 67.8 °F 29.85 in SSW 3.0 mph 8.0 mph 63% 0.00 in
18:09 81.0 °F 66.3 °F 29.84 in West 3.0 mph 5.0 mph 61% 0.00 in
18:14 81.1 °F 66.9 °F 29.84 in WSW 4.0 mph 7.0 mph 62% 0.00 in
18:19 81.1 °F 66.9 °F 29.84 in SW 4.0 mph 5.0 mph 62% 0.00 in
18:20 81.1 °F 66.4 °F 29.84 in SW 4.0 mph 6.0 mph 61% 0.00 in
18:25 81.3 °F 67.1 °F 29.84 in West 5.0 mph 6.0 mph 62% 0.00 in
18:26 81.3 °F 66.6 °F 29.84 in West 6.0 mph 8.0 mph 61% 0.00 in
18:31 81.1 °F 66.9 °F 29.84 in SSW 4.0 mph 6.0 mph 62% 0.00 in
18:36 80.6 °F 66.8 °F 29.85 in SSW 3.0 mph 7.0 mph 63% 0.00 in
18:37 80.6 °F 66.8 °F 29.85 in South 3.0 mph 5.0 mph 63% 0.00 in
18:42 80.9 °F 66.7 °F 29.84 in SW 4.0 mph 7.0 mph 62% 0.00 in
18:47 81.1 °F 66.9 °F 29.84 in SW 5.0 mph 7.0 mph 62% 0.00 in
18:52 81.2 °F 66.9 °F 29.84 in SSE 4.0 mph 6.0 mph 62% 0.00 in
18:57 81.0 °F 66.8 °F 29.84 in SW 5.0 mph 6.0 mph 62% 0.00 in
18:58 80.9 °F 66.7 °F 29.84 in WSW 3.0 mph 6.0 mph 62% 0.00 in
19:03 80.6 °F 67.3 °F 29.84 in SW 3.0 mph 5.0 mph 64% 0.00 in
19:09 80.0 °F 66.3 °F 29.84 in WSW 3.0 mph 4.0 mph 63% 0.00 in
19:14 79.7 °F 66.9 °F 29.84 in SW 2.0 mph 4.0 mph 65% 0.00 in
19:19 79.7 °F 67.3 °F 29.84 in SW 5.0 mph 6.0 mph 66% 0.00 in
19:24 79.8 °F 67.4 °F 29.84 in SW 2.0 mph 4.0 mph 66% 0.00 in
19:29 79.6 °F 66.8 °F 29.84 in SW 6.0 mph 6.0 mph 65% 0.00 in
19:33 79.6 °F 66.8 °F 29.84 in SW 3.0 mph 6.0 mph 65% 0.00 in
19:34 79.5 °F 66.7 °F 29.84 in SW 3.0 mph 4.0 mph 65% 0.00 in
19:35 79.6 °F 67.2 °F 29.84 in SW 2.0 mph 4.0 mph 66% 0.00 in
19:38 79.5 °F 67.6 °F 29.84 in SSW 1.0 mph 4.0 mph 67% 0.00 in
19:43 79.4 °F 66.6 °F 29.84 in SW 4.0 mph 7.0 mph 65% 0.00 in
19:44 79.3 °F 66.5 °F 29.84 in SW 4.0 mph 7.0 mph 65% 0.00 in
19:49 79.0 °F 67.1 °F 29.84 in SW 3.0 mph 4.0 mph 67% 0.00 in
19:54 78.8 °F 67.4 °F 29.84 in SW 1.0 mph 4.0 mph 68% 0.00 in
19:59 78.6 °F 67.2 °F 29.84 in SW 2.0 mph 4.0 mph 68% 0.00 in
20:04 78.4 °F 67.0 °F 29.84 in Calm   3.0 mph 68% 0.00 in
20:09 78.3 °F 66.9 °F 29.84 in Calm   1.0 mph 68% 0.00 in
20:14 78.1 °F 67.1 °F 29.84 in SSW 1.0 mph 3.0 mph 69% 0.00 in
20:19 77.6 °F 67.1 °F 29.84 in SSE 2.0 mph 2.0 mph 70% 0.00 in
20:20 77.6 °F 67.1 °F 29.84 in SSE 1.0 mph 2.0 mph 70% 0.00 in
20:24 77.1 °F 66.6 °F 29.84 in SSE 2.0 mph 2.0 mph 70% 0.00 in
20:29 76.7 °F 66.6 °F 29.84 in SSE 2.0 mph 2.0 mph 71% 0.00 in
20:30 76.6 °F 66.9 °F 29.84 in SSE 1.0 mph 2.0 mph 72% 0.00 in
20:34 76.1 °F 66.8 °F 29.84 in SSE 2.0 mph 2.0 mph 73% 0.00 in
20:36 75.8 °F 66.5 °F 29.84 in SSE 1.0 mph 2.0 mph 73% 0.00 in
20:37 75.7 °F 66.8 °F 29.84 in SSE 1.0 mph 2.0 mph 74% 0.00 in
20:42 75.3 °F 66.8 °F 29.84 in SE 1.0 mph 1.0 mph 75% 0.00 in
20:47 74.8 °F 66.7 °F 29.84 in Calm   1.0 mph 76% 0.00 in
20:52 74.5 °F 66.8 °F 29.84 in SE 1.0 mph 1.0 mph 77% 0.00 in
20:53 74.4 °F 66.7 °F 29.84 in SE 1.0 mph 1.0 mph 77% 0.00 in
20:54 74.3 °F 67.0 °F 29.84 in SE 1.0 mph 1.0 mph 78% 0.00 in
20:57 74.1 °F 66.8 °F 29.84 in Calm   1.0 mph 78% 0.00 in
20:58 73.9 °F 67.0 °F 29.84 in SE 1.0 mph 1.0 mph 79% 0.00 in
21:03 73.5 °F 66.6 °F 29.84 in SE 1.0 mph 1.0 mph 79% 0.00 in
21:04 73.4 °F 66.5 °F 29.84 in SE 1.0 mph 1.0 mph 79% 0.00 in
21:09 73.2 °F 66.7 °F 29.85 in SSE 1.0 mph 1.0 mph 80% 0.00 in
21:14 73.2 °F 66.7 °F 29.85 in SSE 1.0 mph 1.0 mph 80% 0.00 in
21:19 73.2 °F 66.7 °F 29.85 in SSE 1.0 mph 1.0 mph 80% 0.00 in
21:24 73.1 °F 66.6 °F 29.85 in SSE 1.0 mph 2.0 mph 80% 0.00 in
21:26 73.1 °F 66.6 °F 29.85 in SSE 1.0 mph 2.0 mph 80% 0.00 in
21:30 73.1 °F 66.6 °F 29.85 in SSE 1.0 mph 2.0 mph 80% 0.00 in
21:31 73.0 °F 66.5 °F 29.85 in SE 1.0 mph 2.0 mph 80% 0.00 in
21:32 73.0 °F 66.5 °F 29.85 in SSE 1.0 mph 2.0 mph 80% 0.00 in
21:39 73.0 °F 66.5 °F 29.85 in SSE 2.0 mph 3.0 mph 80% 0.00 in
21:44 72.9 °F 66.4 °F 29.85 in SSE 2.0 mph 2.0 mph 80% 0.00 in
21:49 72.7 °F 66.2 °F 29.85 in SE 2.0 mph 2.0 mph 80% 0.00 in
21:50 72.6 °F 66.4 °F 29.85 in SSE 1.0 mph 2.0 mph 81% 0.00 in
21:54 72.6 °F 66.4 °F 29.86 in SSE 2.0 mph 2.0 mph 81% 0.00 in
21:55 72.6 °F 66.4 °F 29.86 in SSW 2.0 mph 2.0 mph 81% 0.00 in
21:56 72.6 °F 66.4 °F 29.86 in South 2.0 mph 2.0 mph 81% 0.00 in
21:58 72.7 °F 66.5 °F 29.85 in SE 2.0 mph 3.0 mph 81% 0.00 in
22:01 72.8 °F 66.3 °F 29.86 in SSE 2.0 mph 3.0 mph 80% 0.00 in
22:06 72.7 °F 66.2 °F 29.86 in SE 2.0 mph 2.0 mph 80% 0.00 in
22:11 72.3 °F 66.2 °F 29.86 in SE 1.0 mph 2.0 mph 81% 0.00 in
22:16 72.0 °F 66.2 °F 29.86 in SE 1.0 mph 1.0 mph 82% 0.00 in
22:21 71.6 °F 66.2 °F 29.86 in SE 1.0 mph 1.0 mph 83% 0.00 in
22:27 71.2 °F 65.8 °F 29.86 in SE 1.0 mph 1.0 mph 83% 0.00 in
22:32 70.8 °F 65.7 °F 29.86 in SE 2.0 mph 2.0 mph 84% 0.00 in
22:34 70.8 °F 66.1 °F 29.86 in SSE 1.0 mph 2.0 mph 85% 0.00 in
22:38 70.7 °F 66.0 °F 29.86 in SSE 1.0 mph 2.0 mph 85% 0.00 in
22:44 70.6 °F 65.9 °F 29.86 in SE 1.0 mph 1.0 mph 85% 0.00 in
22:49 70.5 °F 65.8 °F 29.86 in SSE 1.0 mph 2.0 mph 85% 0.00 in
22:54 70.5 °F 66.1 °F 29.86 in SSE 1.0 mph 2.0 mph 86% 0.00 in
22:55 70.6 °F 66.2 °F 29.87 in SSE 1.0 mph 2.0 mph 86% 0.00 in
22:56 70.6 °F 66.2 °F 29.86 in South 1.0 mph 2.0 mph 86% 0.00 in
23:00 70.8 °F 66.1 °F 29.87 in SSE 1.0 mph 2.0 mph 85% 0.00 in
23:05 70.8 °F 66.1 °F 29.87 in SE 2.0 mph 2.0 mph 85% 0.00 in
23:10 70.9 °F 66.2 °F 29.87 in SSW 1.0 mph 3.0 mph 85% 0.00 in
23:11 70.9 °F 66.2 °F 29.87 in SSE 1.0 mph 3.0 mph 85% 0.00 in
23:16 70.6 °F 65.9 °F 29.87 in SE 2.0 mph 2.0 mph 85% 0.00 in
23:21 70.3 °F 65.6 °F 29.87 in SE 1.0 mph 2.0 mph 85% 0.00 in
23:26 70.2 °F 65.8 °F 29.87 in SE 1.0 mph 2.0 mph 86% 0.00 in
23:31 70.2 °F 65.8 °F 29.87 in SE 1.0 mph 3.0 mph 86% 0.00 in
23:32 70.3 °F 65.9 °F 29.87 in SE 2.0 mph 2.0 mph 86% 0.00 in
23:36 70.3 °F 65.9 °F 29.87 in SE 1.0 mph 2.0 mph 86% 0.00 in
23:41 70.1 °F 66.1 °F 29.87 in SE 1.0 mph 1.0 mph 87% 0.00 in
23:46 69.9 °F 65.5 °F 29.87 in Calm   1.0 mph 86% 0.00 in
23:51 69.6 °F 65.6 °F 29.87 in South 1.0 mph 1.0 mph 87% 0.00 in
23:52 69.5 °F 65.8 °F 29.87 in South 1.0 mph 1.0 mph 88% 0.00 in
23:56 69.4 °F 65.7 °F 29.87 in SE 1.0 mph 1.0 mph 88% 0.00 in
23:57 69.3 °F 65.6 °F 29.87 in SE 1.0 mph 1.0 mph 88% 0.00 in
23:58 69.3 °F 65.6 °F 29.87 in SE 1.0 mph 1.0 mph 88% 0.00 in
Compliments of Weather Underground